createdAt,value
2022-10-09T00:00:59.454Z,99.9
2022-10-09T00:06:01.429Z,99.9
2022-10-09T00:11:03.601Z,99.9
2022-10-09T00:16:05.607Z,99.9
2022-10-09T00:21:07.481Z,99.9
2022-10-09T00:26:09.436Z,99.9
2022-10-09T00:31:11.720Z,99.9
2022-10-09T00:36:13.620Z,99.9
2022-10-09T00:41:15.486Z,99.9
2022-10-09T00:46:18.033Z,99.9
2022-10-09T00:51:19.994Z,99.9
2022-10-09T00:56:21.928Z,99.9
2022-10-09T01:01:24.410Z,99.9
2022-10-09T01:06:26.811Z,99.9
2022-10-09T01:11:28.747Z,99.9
2022-10-09T01:16:31.088Z,99.9
2022-10-09T01:21:32.944Z,99.9
2022-10-09T01:26:34.838Z,99.9
2022-10-09T01:36:37.769Z,99.9
2022-10-09T01:41:39.633Z,99.9
2022-10-09T01:46:42.214Z,99.9
2022-10-09T01:51:44.229Z,99.9
2022-10-09T01:56:46.088Z,99.9
2022-10-09T02:01:48.895Z,99.9
2022-10-09T02:06:51.053Z,99.9
2022-10-09T02:11:53.216Z,99.9
2022-10-09T02:16:55.663Z,99.9
2022-10-09T02:21:57.673Z,99.9
2022-10-09T02:26:59.541Z,99.9
2022-10-09T02:32:01.965Z,99.9
2022-10-09T02:37:03.901Z,99.9
2022-10-09T02:42:05.760Z,99.9
2022-10-09T02:47:08.379Z,99.9
2022-10-09T02:52:10.490Z,99.9
2022-10-09T02:57:12.447Z,99.9
2022-10-09T03:02:15.416Z,99.9
2022-10-09T03:07:18.061Z,99.9
2022-10-09T03:12:19.964Z,99.9
2022-10-09T03:17:22.109Z,99.9
2022-10-09T03:22:23.956Z,99.9
2022-10-09T03:27:25.853Z,99.9
2022-10-09T03:32:28.555Z,99.9
2022-10-09T03:37:30.494Z,99.9
2022-10-09T03:42:32.421Z,99.9
2022-10-09T03:47:34.518Z,99.9
2022-10-09T03:52:36.598Z,99.9
2022-10-09T03:57:38.558Z,99.9
2022-10-09T04:02:41.101Z,99.9
2022-10-09T04:07:43.462Z,99.9
2022-10-09T04:12:45.606Z,99.9
2022-10-09T04:17:47.732Z,99.9
2022-10-09T04:22:51.225Z,99.9
2022-10-09T04:27:53.360Z,99.9
2022-10-09T04:32:55.782Z,99.9
2022-10-09T04:37:57.801Z,99.9
2022-10-09T04:42:59.709Z,99.9
2022-10-09T04:48:01.838Z,99.9
2022-10-09T04:53:03.700Z,99.9
2022-10-09T04:58:05.646Z,99.9
2022-10-09T05:03:07.879Z,99.9
2022-10-09T05:08:09.959Z,99.9
2022-10-09T05:13:11.826Z,99.9
2022-10-09T05:18:14.754Z,99.9
2022-10-09T05:23:16.788Z,99.9
2022-10-09T05:28:18.992Z,99.9
2022-10-09T05:33:21.080Z,99.9
2022-10-09T05:38:23.129Z,99.9
2022-10-09T05:43:25.586Z,99.9
2022-10-09T05:48:27.421Z,99.9
2022-10-09T05:53:29.426Z,99.9
2022-10-09T05:58:31.320Z,99.9
2022-10-09T06:03:33.260Z,99.9
2022-10-09T06:08:35.389Z,99.9
2022-10-09T06:13:37.466Z,99.9
2022-10-09T06:18:39.635Z,99.9
2022-10-09T06:23:41.546Z,99.9
2022-10-09T06:33:44.406Z,99.9
2022-10-09T06:38:46.479Z,99.9
2022-10-09T06:43:48.671Z,99.9
2022-10-09T06:48:50.728Z,99.9
2022-10-09T06:53:52.872Z,99.9
2022-10-09T06:58:54.801Z,99.9
2022-10-09T07:03:56.977Z,99.9
2022-10-09T07:08:59.057Z,99.9
2022-10-09T07:14:00.978Z,99.9
2022-10-09T07:19:03.010Z,99.9
2022-10-09T07:24:05.033Z,99.9
2022-10-09T07:29:06.984Z,99.9
2022-10-09T07:34:08.911Z,99.9
2022-10-09T07:39:10.798Z,99.9
2022-10-09T07:44:13.743Z,99.9
2022-10-09T07:49:17.245Z,99.9
2022-10-09T07:54:19.120Z,99.9
2022-10-09T07:59:21.091Z,99.9
2022-10-09T08:04:23.126Z,99.9
2022-10-09T08:09:25.384Z,99.9
2022-10-09T08:14:27.523Z,99.9
2022-10-09T08:19:29.929Z,99.9
2022-10-09T08:24:31.945Z,99.9
2022-10-09T08:29:41.063Z,99.9
2022-10-09T08:34:44.236Z,99.9
2022-10-09T08:39:47.403Z,99.9
2022-10-09T08:44:49.307Z,99.9
2022-10-09T08:49:51.313Z,99.4
2022-10-09T08:54:53.161Z,98.4
2022-10-09T08:59:55.155Z,97.8
2022-10-09T09:04:57.924Z,96.6
2022-10-09T09:10:00.227Z,96.5
2022-10-09T09:15:02.176Z,95.6
2022-10-09T09:20:05.308Z,94.1
2022-10-09T09:25:07.206Z,94.1
2022-10-09T09:30:09.246Z,93.8
2022-10-09T09:35:11.828Z,93.5
2022-10-09T09:40:48.488Z,93
2022-10-09T09:45:21.027Z,93.1
2022-10-09T09:51:27.807Z,92.8
2022-10-09T09:55:30.759Z,92.8
2022-10-09T10:00:33.160Z,92.8
2022-10-09T10:05:35.683Z,92.6
2022-10-09T10:10:37.869Z,92.5
2022-10-09T10:15:39.770Z,92
2022-10-09T10:20:42.614Z,93.2
2022-10-09T10:25:44.616Z,93.1
2022-10-09T10:30:46.567Z,94
2022-10-09T10:35:48.594Z,92.9
2022-10-09T10:40:50.635Z,93.4
2022-10-09T10:45:52.628Z,93
2022-10-09T10:50:55.224Z,94.3
2022-10-09T10:56:02.753Z,94.2
2022-10-09T11:01:07.573Z,95.6
2022-10-09T11:06:09.672Z,95.5
2022-10-09T11:11:11.781Z,95.4
2022-10-09T11:16:14.330Z,94
2022-10-09T11:21:16.238Z,94
2022-10-09T11:26:18.514Z,94.3
2022-10-09T11:31:21.431Z,97.5
2022-10-09T11:36:24.670Z,99
2022-10-09T11:41:26.690Z,99
2022-10-09T11:46:28.999Z,97.8
2022-10-09T11:51:31.031Z,97
2022-10-09T11:56:33.179Z,98.7
2022-10-09T12:01:35.793Z,99.6
2022-10-09T12:06:40.199Z,99.6
2022-10-09T12:11:42.332Z,99.9
2022-10-09T12:16:45.100Z,99.9
2022-10-09T12:21:47.623Z,99.9
2022-10-09T12:26:49.577Z,99.9
2022-10-09T12:31:51.611Z,99.9
2022-10-09T12:36:53.657Z,99.9
2022-10-09T12:41:55.726Z,99.9
2022-10-09T12:46:58.100Z,99.9
2022-10-09T12:52:02.165Z,99.9
2022-10-09T12:57:04.481Z,99.9
2022-10-09T13:02:07.366Z,99.9
2022-10-09T13:07:09.661Z,99.9
2022-10-09T13:12:11.806Z,99.9
2022-10-09T13:17:13.987Z,99.9
2022-10-09T13:22:16.029Z,99.9
2022-10-09T13:27:18.049Z,99.9
2022-10-09T13:32:20.064Z,99.9
2022-10-09T13:37:21.963Z,99.9
2022-10-09T13:42:23.830Z,99.9
2022-10-09T13:47:28.551Z,99.9
2022-10-09T13:52:30.824Z,99.9
2022-10-09T13:57:33.122Z,99.9
2022-10-09T14:02:35.290Z,99.9
2022-10-09T14:07:37.931Z,99.9
2022-10-09T14:12:40.548Z,99.9
2022-10-09T14:17:42.600Z,99.9
2022-10-09T14:22:45.019Z,99.9
2022-10-09T14:27:47.089Z,99.9
2022-10-09T14:32:50.916Z,99.9
2022-10-09T14:37:53.322Z,99.9
2022-10-09T14:42:55.415Z,99.9
2022-10-09T14:47:57.425Z,99.9
2022-10-09T14:52:59.358Z,99.9
2022-10-09T14:58:01.410Z,99.9
2022-10-09T15:03:03.589Z,99.9
2022-10-09T15:08:05.539Z,99.9
2022-10-09T15:13:07.836Z,99.9
2022-10-09T15:18:09.808Z,99.9
2022-10-09T15:23:12.544Z,99.9
2022-10-09T15:28:14.574Z,99.9
2022-10-09T15:33:16.551Z,99.9
2022-10-09T15:38:18.540Z,99.9
2022-10-09T15:43:20.544Z,99.9
2022-10-09T15:48:22.727Z,99.9
2022-10-09T15:53:25.205Z,99.9
2022-10-09T15:58:27.139Z,99.9
2022-10-09T16:08:30.247Z,99.9
2022-10-09T16:13:33.017Z,99.9
2022-10-09T16:18:34.980Z,99.9
2022-10-09T16:23:37.183Z,99.9
2022-10-09T16:28:39.699Z,99.9
2022-10-09T16:33:41.850Z,99.9
